createdAt,value
2018-12-25T00:00:23.313Z,1.20
2018-12-25T00:02:53.162Z,1.10
2018-12-25T00:05:22.881Z,1.20
2018-12-25T00:07:53.062Z,1.23
2018-12-25T00:10:23.421Z,1.20
2018-12-25T00:12:52.482Z,1.10
2018-12-25T00:15:21.761Z,1.30
2018-12-25T00:17:51.298Z,1.20
2018-12-25T00:20:21.158Z,1.30
2018-12-25T00:22:50.638Z,1.23
2018-12-25T00:25:20.158Z,1.43
2018-12-25T00:27:49.445Z,1.30
2018-12-25T00:30:18.846Z,2.40
2018-12-25T00:32:48.348Z,1.93
2018-12-25T00:35:17.604Z,2.50
2018-12-25T00:37:47.445Z,3.10
2018-12-25T00:40:16.675Z,2.03
2018-12-25T00:42:45.705Z,1.30
2018-12-25T00:45:15.199Z,1.20
2018-12-25T00:47:44.294Z,1.40
2018-12-25T00:50:13.480Z,1.33
2018-12-25T00:52:45.518Z,2.10
2018-12-25T00:55:14.734Z,1.50
2018-12-25T00:57:44.496Z,1.30
2018-12-25T01:00:13.425Z,1.40
2018-12-25T01:02:42.541Z,1.20
2018-12-25T01:05:11.998Z,1.20
2018-12-25T01:07:42.077Z,1.30
2018-12-25T01:10:11.045Z,1.33
2018-12-25T01:12:40.621Z,1.37
2018-12-25T01:15:09.838Z,1.20
2018-12-25T01:17:39.218Z,1.20
2018-12-25T01:20:08.283Z,1.10
2018-12-25T01:22:37.821Z,1.03
2018-12-25T01:25:06.778Z,1.07
2018-12-25T01:27:36.136Z,1.00
2018-12-25T01:30:05.796Z,1.10
2018-12-25T01:32:34.735Z,1.20
2018-12-25T01:35:04.320Z,2.87
2018-12-25T01:37:33.435Z,2.50
2018-12-25T01:40:02.893Z,2.70
2018-12-25T01:42:31.893Z,2.70
2018-12-25T01:45:01.175Z,3.20
2018-12-25T01:47:30.265Z,3.47
2018-12-25T01:49:59.638Z,3.47
2018-12-25T01:52:28.839Z,3.33
2018-12-25T01:54:57.895Z,3.63
2018-12-25T01:57:26.814Z,3.53
2018-12-25T01:59:56.634Z,3.17
2018-12-25T02:02:26.121Z,3.40
2018-12-25T02:04:55.123Z,3.13
2018-12-25T02:07:24.144Z,3.43
2018-12-25T02:09:53.663Z,3.77
2018-12-25T02:12:25.597Z,3.30
2018-12-25T02:14:55.035Z,3.27
2018-12-25T02:17:24.336Z,3.40
2018-12-25T02:19:53.301Z,3.67
2018-12-25T02:22:22.696Z,3.93
2018-12-25T02:24:51.836Z,4.20
2018-12-25T02:27:20.755Z,4.20
2018-12-25T02:29:50.046Z,4.27
2018-12-25T02:32:19.035Z,4.33
2018-12-25T02:34:48.117Z,4.70
2018-12-25T02:37:17.219Z,4.70
2018-12-25T02:39:46.136Z,4.20
2018-12-25T02:42:15.080Z,4.13
2018-12-25T02:44:44.255Z,4.40
2018-12-25T02:47:13.494Z,4.67
2018-12-25T02:49:50.214Z,4.67
2018-12-25T02:52:14.595Z,4.13
2018-12-25T02:54:43.695Z,4.73
2018-12-25T02:57:13.195Z,4.50
2018-12-25T02:59:42.375Z,4.33
2018-12-25T03:02:11.760Z,4.33
2018-12-25T03:04:40.956Z,4.80
2018-12-25T03:07:10.597Z,5.03
2018-12-25T03:09:40.098Z,4.77
2018-12-25T03:12:09.278Z,5.10
2018-12-25T03:14:38.697Z,5.10
2018-12-25T03:17:07.835Z,5.10
2018-12-25T03:19:36.939Z,5.20
2018-12-25T03:22:06.075Z,4.73
2018-12-25T03:24:35.694Z,4.67
2018-12-25T03:27:05.060Z,5.50
2018-12-25T03:29:34.637Z,5.23
2018-12-25T03:32:03.863Z,5.30
2018-12-25T03:34:33.259Z,5.40
2018-12-25T03:37:02.416Z,5.90
2018-12-25T03:39:31.395Z,5.83
2018-12-25T03:42:00.496Z,6.70
2018-12-25T03:44:29.755Z,6.20
2018-12-25T03:46:59.497Z,6.53
2018-12-25T03:49:28.756Z,6.60
2018-12-25T03:51:57.877Z,6.50
2018-12-25T03:54:27.517Z,6.30
2018-12-25T03:56:56.597Z,6.97
2018-12-25T03:59:25.558Z,6.13
2018-12-25T04:01:54.861Z,6.27
2018-12-25T04:04:24.199Z,6.77
2018-12-25T04:06:53.920Z,7.40
2018-12-25T04:09:23.141Z,7.20
2018-12-25T04:11:52.335Z,6.83
2018-12-25T04:14:21.636Z,7.40
2018-12-25T04:16:51.276Z,7.10
2018-12-25T04:19:20.578Z,7.73
2018-12-25T04:21:50.016Z,7.77
2018-12-25T04:24:19.016Z,7.53
2018-12-25T04:26:48.296Z,7.37
2018-12-25T04:29:17.915Z,6.90
2018-12-25T04:31:47.157Z,6.97
2018-12-25T04:34:16.316Z,7.33
2018-12-25T04:36:45.615Z,7.90
2018-12-25T04:39:15.136Z,7.33
2018-12-25T04:41:44.296Z,7.17
2018-12-25T04:44:13.576Z,8.10
2018-12-25T04:46:43.095Z,7.13
2018-12-25T04:49:12.036Z,6.93
2018-12-25T04:51:42.095Z,6.13
2018-12-25T04:54:11.516Z,5.40
2018-12-25T04:56:40.897Z,5.33
2018-12-25T04:59:10.435Z,5.67
2018-12-25T05:01:39.741Z,4.60
2018-12-25T05:04:08.610Z,4.00
2018-12-25T05:06:38.719Z,3.23
2018-12-25T05:09:10.718Z,3.93
2018-12-25T05:11:39.699Z,6.00
2018-12-25T05:14:09.415Z,6.77
2018-12-25T05:16:38.699Z,6.57
2018-12-25T05:19:07.717Z,7.30
2018-12-25T05:21:37.054Z,7.20
2018-12-25T05:24:06.236Z,7.73
2018-12-25T05:26:36.156Z,8.43
2018-12-25T05:29:05.215Z,8.07
2018-12-25T05:31:35.096Z,8.50
2018-12-25T05:34:04.276Z,8.23
2018-12-25T05:36:33.457Z,8.87
2018-12-25T05:39:02.794Z,8.87
2018-12-25T05:41:31.798Z,8.63
2018-12-25T05:44:01.606Z,8.73
2018-12-25T05:46:31.794Z,8.17
2018-12-25T05:49:00.820Z,7.30
2018-12-25T05:51:29.915Z,8.53
2018-12-25T05:53:58.957Z,7.00
2018-12-25T05:56:28.136Z,7.37
2018-12-25T05:58:59.516Z,7.27
2018-12-25T06:01:28.608Z,7.47
2018-12-25T06:03:57.828Z,8.63
2018-12-25T06:06:27.227Z,8.13
2018-12-25T06:08:56.569Z,8.10
2018-12-25T06:11:25.688Z,8.07
2018-12-25T06:13:54.628Z,7.80
2018-12-25T06:16:23.989Z,7.43
2018-12-25T06:18:53.128Z,8.43
2018-12-25T06:21:22.295Z,7.60
2018-12-25T06:23:51.715Z,7.50
2018-12-25T06:26:20.799Z,7.07
2018-12-25T06:28:49.955Z,6.73
2018-12-25T06:31:21.418Z,6.87
2018-12-25T06:33:50.356Z,6.40
2018-12-25T06:36:19.556Z,6.57
2018-12-25T06:38:48.876Z,6.77
2018-12-25T06:41:18.396Z,7.13
2018-12-25T06:43:47.516Z,6.70
2018-12-25T06:46:16.876Z,9.93
2018-12-25T06:48:46.656Z,8.50
2018-12-25T06:51:16.376Z,8.13
2018-12-25T06:53:45.483Z,8.67
2018-12-25T06:56:14.578Z,7.27
2018-12-25T06:58:44.174Z,7.03
2018-12-25T07:01:15.139Z,7.67
2018-12-25T07:03:44.319Z,5.87
2018-12-25T07:06:13.679Z,7.77
2018-12-25T07:08:42.778Z,10.53
2018-12-25T07:11:12.284Z,6.20
2018-12-25T07:13:41.738Z,6.57
2018-12-25T07:16:10.917Z,7.30
2018-12-25T07:18:40.363Z,6.13
2018-12-25T07:21:12.285Z,5.70
2018-12-25T07:23:40.455Z,5.10
2018-12-25T07:26:09.776Z,5.63
2018-12-25T07:28:38.718Z,4.87
2018-12-25T07:31:08.008Z,4.93
2018-12-25T07:33:37.274Z,3.50
2018-12-25T07:36:06.395Z,4.13
2018-12-25T07:38:36.156Z,3.60
2018-12-25T07:41:05.557Z,4.20
2018-12-25T07:43:35.219Z,4.53
2018-12-25T07:46:05.057Z,3.30
2018-12-25T07:48:34.317Z,4.03
2018-12-25T07:51:03.383Z,5.73
2018-12-25T07:53:32.803Z,4.10
2018-12-25T07:56:01.919Z,3.63
2018-12-25T07:58:30.953Z,3.50
2018-12-25T08:00:59.816Z,3.50
2018-12-25T08:03:28.739Z,6.00
2018-12-25T08:05:57.800Z,3.93
2018-12-25T08:08:26.924Z,3.30
2018-12-25T08:10:56.063Z,4.27
2018-12-25T08:13:25.454Z,4.07
2018-12-25T08:15:54.396Z,2.83
2018-12-25T08:18:23.273Z,3.70
2018-12-25T08:20:52.457Z,3.83
2018-12-25T08:23:21.574Z,4.80
2018-12-25T08:25:50.884Z,5.70
2018-12-25T08:28:20.225Z,4.40
2018-12-25T08:30:49.436Z,2.90
2018-12-25T08:33:19.238Z,4.20
2018-12-25T08:35:48.213Z,3.63
2018-12-25T08:38:17.496Z,3.00
2018-12-25T08:40:47.086Z,2.80
2018-12-25T08:43:16.334Z,2.10
2018-12-25T08:45:46.114Z,2.37
2018-12-25T08:48:16.016Z,7.20
2018-12-25T08:50:45.453Z,3.23
2018-12-25T08:53:14.877Z,2.30
2018-12-25T08:55:43.814Z,3.40
2018-12-25T08:58:12.794Z,3.33
2018-12-25T09:00:42.241Z,2.73
2018-12-25T09:03:14.415Z,1.93
2018-12-25T09:05:44.145Z,3.47
2018-12-25T09:08:13.776Z,2.20
2018-12-25T09:10:42.894Z,1.93
2018-12-25T09:13:12.315Z,1.80
2018-12-25T09:15:42.234Z,1.60
2018-12-25T09:18:11.355Z,1.30
2018-12-25T09:20:40.474Z,1.53
2018-12-25T09:23:09.655Z,1.50
2018-12-25T09:25:38.665Z,1.60
2018-12-25T09:28:07.621Z,3.40
2018-12-25T09:30:36.480Z,4.83
2018-12-25T09:33:05.605Z,4.00
2018-12-25T09:35:34.681Z,3.67
2018-12-25T09:38:03.670Z,3.63
2018-12-25T09:40:32.694Z,3.80
2018-12-25T09:43:01.603Z,3.97
2018-12-25T09:45:30.664Z,1.47
2018-12-25T09:47:59.701Z,1.43
2018-12-25T09:50:28.654Z,1.30
2018-12-25T09:52:57.734Z,1.33
2018-12-25T09:55:26.668Z,1.40
2018-12-25T09:57:55.612Z,1.30
2018-12-25T10:00:24.541Z,1.50
2018-12-25T10:02:54.694Z,1.40
2018-12-25T10:05:25.158Z,1.17
2018-12-25T10:07:54.196Z,1.20
2018-12-25T10:10:23.196Z,1.30
2018-12-25T10:12:52.198Z,1.33
2018-12-25T10:15:21.181Z,1.43
2018-12-25T10:17:50.303Z,1.30
2018-12-25T10:20:19.359Z,1.40
2018-12-25T10:22:48.469Z,1.50
2018-12-25T10:25:17.441Z,1.40
2018-12-25T10:27:46.739Z,1.40
2018-12-25T10:30:15.836Z,1.30
2018-12-25T10:32:44.774Z,1.50
2018-12-25T10:35:13.754Z,1.50
2018-12-25T10:37:45.192Z,1.43
2018-12-25T10:40:14.187Z,1.60
2018-12-25T10:42:43.700Z,1.47
2018-12-25T10:45:12.719Z,1.20
2018-12-25T10:47:41.879Z,1.47
2018-12-25T10:50:10.798Z,1.27
2018-12-25T10:52:40.258Z,1.40
2018-12-25T10:55:09.245Z,1.20
2018-12-25T10:57:38.327Z,1.30
2018-12-25T11:00:12.745Z,1.67
2018-12-25T11:02:41.780Z,2.67
2018-12-25T11:05:11.662Z,2.00
2018-12-25T11:07:41.057Z,3.33
2018-12-25T11:10:10.100Z,1.80
2018-12-25T11:12:39.659Z,2.27
2018-12-25T11:15:10.497Z,2.60
2018-12-25T11:17:40.002Z,1.90
2018-12-25T11:20:11.577Z,1.60
2018-12-25T11:22:40.779Z,1.60
2018-12-25T11:25:09.986Z,1.50
2018-12-25T11:27:39.120Z,1.40
2018-12-25T11:30:09.040Z,1.20
2018-12-25T11:32:38.379Z,1.40
2018-12-25T11:35:07.680Z,1.50
2018-12-25T11:37:37.537Z,1.50
2018-12-25T11:40:08.477Z,1.53
2018-12-25T11:42:38.164Z,1.40
2018-12-25T11:45:07.316Z,1.40
2018-12-25T11:47:36.579Z,1.40
2018-12-25T11:50:05.898Z,1.50
2018-12-25T11:52:35.160Z,1.40
2018-12-25T11:55:04.138Z,1.50
2018-12-25T11:57:33.598Z,1.40
2018-12-25T12:00:02.822Z,1.33
2018-12-25T12:02:32.318Z,1.50
2018-12-25T12:05:01.353Z,1.33
2018-12-25T12:07:30.881Z,1.63
2018-12-25T12:10:00.324Z,1.53
2018-12-25T12:12:29.762Z,1.40
2018-12-25T12:14:58.888Z,1.30
2018-12-25T12:17:28.463Z,1.60
2018-12-25T12:19:57.779Z,1.70
2018-12-25T12:22:26.860Z,1.70
2018-12-25T12:24:56.338Z,1.40
2018-12-25T12:27:26.478Z,1.70
2018-12-25T12:29:55.816Z,1.90
2018-12-25T12:32:25.658Z,1.80
2018-12-25T12:34:54.734Z,1.80
2018-12-25T12:37:23.874Z,1.80
2018-12-25T12:39:53.275Z,1.93
2018-12-25T12:42:22.375Z,1.80
2018-12-25T12:44:51.477Z,1.67
2018-12-25T12:47:20.637Z,5.43
2018-12-25T12:49:49.696Z,1.80
2018-12-25T12:52:19.134Z,2.07
2018-12-25T12:54:48.775Z,2.17
2018-12-25T12:57:18.083Z,2.10
2018-12-25T12:59:47.195Z,2.30
2018-12-25T13:02:16.156Z,2.27
2018-12-25T13:04:46.237Z,1.60
2018-12-25T13:07:15.439Z,1.70
2018-12-25T13:09:44.638Z,2.10
2018-12-25T13:12:14.136Z,1.60
2018-12-25T13:14:43.178Z,1.67
2018-12-25T13:17:12.274Z,1.50
2018-12-25T13:19:41.414Z,1.70
2018-12-25T13:22:11.054Z,1.70
2018-12-25T13:24:40.653Z,1.60
2018-12-25T13:27:09.594Z,1.60
2018-12-25T13:29:38.554Z,1.70
2018-12-25T13:32:07.957Z,1.67
2018-12-25T13:34:37.134Z,1.33
2018-12-25T13:37:06.553Z,1.60
2018-12-25T13:39:35.736Z,1.73
2018-12-25T13:42:05.156Z,1.50
2018-12-25T13:44:34.873Z,1.90
2018-12-25T13:47:04.274Z,1.67
2018-12-25T13:49:33.534Z,1.60
2018-12-25T13:52:02.553Z,1.70
2018-12-25T13:54:32.901Z,1.60
2018-12-25T13:57:02.393Z,1.80
2018-12-25T13:59:32.113Z,1.67
2018-12-25T14:02:01.358Z,1.77
2018-12-25T14:04:30.561Z,1.67
2018-12-25T14:07:01.936Z,1.43
2018-12-25T14:09:31.075Z,1.60
2018-12-25T14:12:00.598Z,1.80
2018-12-25T14:14:29.857Z,1.53
2018-12-25T14:16:58.716Z,1.77
2018-12-25T14:19:28.236Z,1.50
2018-12-25T14:21:57.357Z,1.40
2018-12-25T14:24:27.001Z,1.60
2018-12-25T14:26:56.177Z,1.90
2018-12-25T14:29:25.197Z,2.20
2018-12-25T14:31:54.497Z,1.87
2018-12-25T14:34:23.917Z,1.90
2018-12-25T14:36:52.979Z,1.80
2018-12-25T14:39:22.436Z,1.40
2018-12-25T14:41:51.721Z,1.57
2018-12-25T14:44:21.003Z,1.60
2018-12-25T14:46:49.945Z,1.93
2018-12-25T14:49:19.486Z,2.00
2018-12-25T14:51:48.947Z,2.50
2018-12-25T14:54:19.206Z,3.43
2018-12-25T14:56:48.365Z,9.07
2018-12-25T14:59:17.387Z,3.77
2018-12-25T15:01:46.859Z,8.77
2018-12-25T15:04:15.898Z,16.53
2018-12-25T15:06:45.115Z,11.40
2018-12-25T15:09:14.464Z,6.97
2018-12-25T15:11:43.985Z,6.60
2018-12-25T15:14:13.020Z,4.60
2018-12-25T15:16:42.055Z,2.87
2018-12-25T15:19:11.057Z,3.40
2018-12-25T15:21:40.440Z,2.40
2018-12-25T15:24:09.480Z,3.47
2018-12-25T15:26:38.356Z,2.60
2018-12-25T15:29:07.462Z,2.40
2018-12-25T15:31:37.021Z,1.70
2018-12-25T15:34:05.926Z,1.87
2018-12-25T15:36:34.973Z,1.50
2018-12-25T15:39:05.591Z,1.57
2018-12-25T15:41:35.008Z,1.93
2018-12-25T15:44:03.926Z,1.67
2018-12-25T15:46:33.517Z,1.67
2018-12-25T15:49:02.696Z,1.67
2018-12-25T15:51:31.660Z,1.50
2018-12-25T15:54:00.611Z,1.40
2018-12-25T15:56:29.610Z,1.60
2018-12-25T15:58:58.669Z,1.93
2018-12-25T16:01:27.842Z,2.50
2018-12-25T16:03:56.809Z,1.53
2018-12-25T16:06:25.913Z,1.60
2018-12-25T16:08:55.049Z,1.53
2018-12-25T16:11:24.123Z,1.40
2018-12-25T16:13:53.160Z,2.60
2018-12-25T16:16:22.158Z,1.70
2018-12-25T16:18:51.114Z,1.87
2018-12-25T16:21:20.122Z,1.70
2018-12-25T16:23:49.202Z,1.97
2018-12-25T16:26:19.008Z,1.60
2018-12-25T16:28:48.106Z,2.00
2018-12-25T16:31:17.445Z,8.40
2018-12-25T16:33:46.548Z,3.63
2018-12-25T16:36:15.768Z,2.37
2018-12-25T16:38:45.006Z,2.77
2018-12-25T16:41:14.246Z,2.40
2018-12-25T16:43:44.286Z,3.20
2018-12-25T16:46:13.505Z,2.20
2018-12-25T16:48:42.800Z,1.73
2018-12-25T16:51:11.788Z,2.03
2018-12-25T16:53:41.935Z,1.80
2018-12-25T16:56:11.679Z,2.10
2018-12-25T16:58:40.594Z,1.70
2018-12-25T17:01:09.622Z,1.80
2018-12-25T17:03:38.644Z,1.93
2018-12-25T17:06:08.025Z,1.80
2018-12-25T17:08:37.276Z,4.80
2018-12-25T17:11:06.915Z,4.17
2018-12-25T17:13:35.956Z,3.13
2018-12-25T17:16:05.058Z,4.30
2018-12-25T17:18:34.582Z,3.37
2018-12-25T17:21:04.455Z,2.00
2018-12-25T17:23:33.756Z,1.87
2018-12-25T17:26:03.076Z,1.60
2018-12-25T17:28:32.416Z,1.97
2018-12-25T17:31:01.823Z,2.00
2018-12-25T17:33:32.518Z,1.90
2018-12-25T17:36:01.597Z,2.10
2018-12-25T17:38:30.938Z,2.20
2018-12-25T17:41:00.478Z,2.47
2018-12-25T17:43:31.037Z,2.27
2018-12-25T17:46:00.320Z,2.67
2018-12-25T17:48:30.079Z,2.70
2018-12-25T17:50:59.435Z,2.33
2018-12-25T17:53:28.916Z,2.50
2018-12-25T17:55:58.074Z,2.63
2018-12-25T17:58:27.516Z,2.60
2018-12-25T18:00:57.294Z,2.70
2018-12-25T18:03:27.888Z,2.97
2018-12-25T18:05:57.249Z,3.23
2018-12-25T18:08:26.569Z,2.90
2018-12-25T18:10:55.808Z,3.30
2018-12-25T18:13:24.946Z,2.50
2018-12-25T18:15:57.076Z,3.00
2018-12-25T18:18:26.489Z,3.23
2018-12-25T18:20:55.454Z,2.63
2018-12-25T18:23:24.497Z,2.47
2018-12-25T18:25:54.234Z,2.50
2018-12-25T18:28:23.374Z,2.30
2018-12-25T18:30:52.476Z,2.50
2018-12-25T18:33:24.201Z,2.30
2018-12-25T18:35:53.295Z,1.80
2018-12-25T18:38:22.398Z,1.83
2018-12-25T18:40:51.402Z,2.20
2018-12-25T18:43:20.562Z,2.10
2018-12-25T18:45:49.802Z,2.20
2018-12-25T18:48:18.948Z,1.90
2018-12-25T18:51:07.501Z,1.90
2018-12-25T18:53:36.581Z,1.80
2018-12-25T18:56:05.700Z,1.83
2018-12-25T18:58:35.362Z,2.50
2018-12-25T19:01:04.443Z,2.33
2018-12-25T19:03:33.746Z,2.40
2018-12-25T19:06:03.166Z,2.40
2018-12-25T19:08:33.043Z,2.43
2018-12-25T19:11:02.264Z,2.13
2018-12-25T19:13:31.527Z,2.43
2018-12-25T19:16:00.598Z,1.87
2018-12-25T19:18:29.758Z,2.10
2018-12-25T19:21:18.779Z,2.20
2018-12-25T19:23:50.359Z,1.97
2018-12-25T19:26:20.235Z,2.03
2018-12-25T19:28:49.754Z,2.27
2018-12-25T19:31:19.115Z,2.40
2018-12-25T19:33:50.015Z,2.30
2018-12-25T19:36:19.735Z,1.90
2018-12-25T19:38:48.997Z,2.47
2018-12-25T19:41:17.977Z,2.20
2018-12-25T19:43:47.417Z,1.90
2018-12-25T19:46:17.321Z,1.70
2018-12-25T19:48:46.322Z,2.00
2018-12-25T19:51:15.622Z,1.97
2018-12-25T19:53:45.324Z,2.07
2018-12-25T19:56:14.720Z,1.80
2018-12-25T19:58:44.323Z,2.00
2018-12-25T20:01:13.459Z,1.90
2018-12-25T20:03:44.575Z,2.10
2018-12-25T20:06:34.886Z,1.80
2018-12-25T20:09:24.797Z,2.37
2018-12-25T20:12:12.075Z,2.50
2018-12-25T20:15:03.535Z,2.60
2018-12-25T20:17:47.836Z,2.70
2018-12-25T20:24:03.099Z,2.10
2018-12-25T20:26:58.977Z,2.30
2018-12-25T20:29:59.536Z,1.97
2018-12-25T20:32:59.475Z,2.77
2018-12-25T20:35:52.755Z,2.40
2018-12-25T20:38:30.856Z,2.20
2018-12-25T20:41:09.076Z,2.10
2018-12-25T20:44:00.635Z,1.70
2018-12-25T20:46:50.777Z,2.20
2018-12-25T20:49:39.555Z,2.27
2018-12-25T20:52:35.275Z,1.80
2018-12-25T20:55:35.836Z,1.90
2018-12-25T20:58:24.758Z,2.10
2018-12-25T21:01:02.617Z,2.00
2018-12-25T21:03:42.880Z,2.20
2018-12-25T21:06:25.195Z,2.40
2018-12-25T21:09:33.218Z,2.10
2018-12-25T21:12:31.377Z,2.70
2018-12-25T21:15:26.998Z,3.37
2018-12-25T21:18:11.646Z,4.60
2018-12-25T21:20:55.557Z,3.83
2018-12-25T21:24:00.897Z,4.20
2018-12-25T21:27:06.516Z,4.03
2018-12-25T21:29:35.716Z,3.33
2018-12-25T21:32:05.216Z,3.07
2018-12-25T21:34:34.776Z,4.00
2018-12-25T21:37:05.557Z,3.53
2018-12-25T21:39:35.096Z,3.43
2018-12-25T21:42:13.904Z,2.67
2018-12-25T21:44:43.842Z,2.50
2018-12-25T21:47:13.270Z,2.70
2018-12-25T21:49:45.238Z,2.50
2018-12-25T21:52:15.470Z,2.40
2018-12-25T21:54:44.863Z,2.97
2018-12-25T21:57:14.736Z,2.67
2018-12-25T21:59:44.356Z,2.93
2018-12-25T22:02:13.926Z,3.00
2018-12-25T22:04:43.204Z,2.77
2018-12-25T22:07:12.357Z,2.30
2018-12-25T22:09:41.461Z,2.30
2018-12-25T22:12:10.522Z,2.20
2018-12-25T22:14:39.547Z,2.70
2018-12-25T22:17:08.579Z,2.20
2018-12-25T22:19:37.741Z,2.50
2018-12-25T22:22:06.803Z,2.70
2018-12-25T22:24:35.703Z,2.83
2018-12-25T22:27:04.822Z,2.83
2018-12-25T22:29:33.969Z,2.40
2018-12-25T22:32:02.906Z,2.30
2018-12-25T22:34:32.241Z,1.90
2018-12-25T22:37:01.560Z,2.00
2018-12-25T22:39:30.500Z,1.80
2018-12-25T22:41:59.543Z,2.17
2018-12-25T22:44:28.524Z,2.20
2018-12-25T22:46:57.533Z,1.93
2018-12-25T22:49:26.580Z,2.10
2018-12-25T22:51:55.686Z,1.90
2018-12-25T22:54:24.682Z,2.00
2018-12-25T22:56:53.645Z,2.00
2018-12-25T22:59:23.643Z,2.03
2018-12-25T23:01:52.934Z,2.10
2018-12-25T23:04:22.241Z,2.20
2018-12-25T23:06:51.181Z,2.07
2018-12-25T23:09:20.160Z,1.80
2018-12-25T23:11:49.424Z,2.13
2018-12-25T23:14:18.308Z,2.00
2018-12-25T23:16:47.338Z,2.10
2018-12-25T23:19:16.376Z,1.83
2018-12-25T23:21:45.404Z,2.13
2018-12-25T23:24:14.360Z,1.77
2018-12-25T23:26:43.361Z,2.00
2018-12-25T23:29:12.352Z,2.10
2018-12-25T23:31:41.634Z,2.40
2018-12-25T23:34:10.601Z,1.80
2018-12-25T23:36:39.469Z,2.03
2018-12-25T23:39:08.576Z,1.83
2018-12-25T23:41:40.002Z,1.87
2018-12-25T23:44:09.084Z,1.57
2018-12-25T23:46:40.095Z,1.93
2018-12-25T23:49:09.236Z,1.60
2018-12-25T23:51:38.217Z,1.83
2018-12-25T23:54:07.236Z,1.60
2018-12-25T23:56:38.644Z,1.70
2018-12-25T23:59:11.066Z,1.67
